Ucluelet, Canada
Current Conditions -  °F | °C
As of 6:00 PM on Monday 20 Oct 2014 (Local Time) from CYAZ Reporting Station
Haze Haze  
Wind Chill: 57°   Ceiling: Unl
Heat Index: 57°   Visibility: 6mi
Dew Point: 55°   Wind: 8mph
Humidity: 94%   Direction: 150°SSE
Pressure: 29.67"   Gusts: NA
Location:  48.94°N, 125.54°W
Report Text: CYAZ 210100Z 15007KT 6SM BR FEW020TCU SCT150 SCT230 14/13 A2967 RMK TCU2AC1CC1 CC TR TCU ALQDS LAST OBS/NEXT 211300UTC SLP046 DENSITY ALT 200FT
Loading
Personal Weather Stations






























Interactive Weather Map
Tropical Storm Tracking
New forecast layout! Learn more

10-Day Weather Forecast

Advertisements
Track Severe Weather on mobile